Time,TemperatureF,DewpointF,PressureIn,WindDirection,WindDirectionDegrees,WindSpeedMPH,WindSpeedGustMPH,Humidity,HourlyPrecipIn,Conditions,Clouds,dailyrainin,SoftwareType,DateUTC
2016-02-10 00:00:00,13.1,13.1,29.50,NNE,28,0.0,0.0,100,0.00,,,0.00,VWS V14.01,2016-02-10 05:00:00,
2016-02-10 00:06:00,13.3,13.3,29.50,NNE,28,0.0,0.0,100,0.00,,,0.00,VWS V14.01,2016-02-10 05:06:00,
2016-02-10 00:11:00,13.5,13.5,29.50,NNE,28,0.0,0.0,100,0.00,,,0.00,VWS V14.01,2016-02-10 05:11:00,
2016-02-10 00:16:00,13.6,13.6,29.50,NNE,28,0.0,0.0,100,0.00,,,0.00,VWS V14.01,2016-02-10 05:16:00,
2016-02-10 00:21:00,13.6,13.6,29.50,NNE,28,0.0,0.0,100,0.00,,,0.00,VWS V14.01,2016-02-10 05:21:00,
2016-02-10 00:26:00,13.6,13.6,29.50,NNE,28,0.0,0.0,100,0.00,,,0.00,VWS V14.01,2016-02-10 05:26:00,
2016-02-10 00:31:00,13.6,13.6,29.50,NNE,28,0.0,0.0,100,0.00,,,0.00,VWS V14.01,2016-02-10 05:31:00,
2016-02-10 00:36:00,13.5,13.5,29.50,NNE,28,0.0,0.0,100,0.00,,,0.00,VWS V14.01,2016-02-10 05:36:00,
2016-02-10 00:41:00,13.3,13.3,29.50,NNE,28,0.0,0.0,100,0.00,,BKN029,0.00,VWS V14.01,2016-02-10 05:41:00,
2016-02-10 00:46:00,12.9,12.9,29.49,NNE,28,0.0,0.0,100,0.00,,BKN029,0.00,VWS V14.01,2016-02-10 05:46:00,
2016-02-10 00:51:00,12.8,12.8,29.49,NNE,28,0.0,0.0,100,0.00,,BKN029,0.00,VWS V14.01,2016-02-10 05:51:00,
2016-02-10 00:56:00,12.6,12.6,29.49,NNE,28,0.0,0.0,100,0.00,,BKN029,0.00,VWS V14.01,2016-02-10 05:56:00,
2016-02-10 01:06:00,12.3,12.3,29.49,NNE,27,0.0,0.0,100,0.00,,BKN029,0.00,VWS V14.01,2016-02-10 06:06:00,
2016-02-10 01:11:00,12.3,12.3,29.49,NNE,28,0.0,0.0,100,0.00,,BKN029,0.00,VWS V14.01,2016-02-10 06:11:00,
2016-02-10 01:16:00,12.3,12.3,29.49,NNE,28,0.0,0.0,100,0.00,,BKN029,0.00,VWS V14.01,2016-02-10 06:16:00,
2016-02-10 01:21:00,12.1,12.1,29.49,NNE,28,0.0,0.0,100,0.00,,BKN029,0.00,VWS V14.01,2016-02-10 06:21:00,
2016-02-10 01:26:00,11.7,11.7,29.49,NNE,28,0.0,0.0,100,0.00,,BKN029,0.00,VWS V14.01,2016-02-10 06:26:00,
2016-02-10 01:31:00,11.6,11.6,29.50,NNE,28,0.0,0.0,100,0.00,,BKN029,0.00,VWS V14.01,2016-02-10 06:31:00,
2016-02-10 01:36:00,11.4,11.4,29.50,NNE,28,0.0,0.0,100,0.00,,BKN029,0.00,VWS V14.01,2016-02-10 06:36:00,
2016-02-10 01:41:00,11.2,11.2,29.50,NNE,28,0.0,0.0,100,0.00,,SCT027,0.00,VWS V14.01,2016-02-10 06:41:00,
2016-02-10 01:46:00,11.1,11.1,29.49,NNE,28,0.0,0.0,100,0.00,,SCT027,0.00,VWS V14.01,2016-02-10 06:46:00,
2016-02-10 01:52:00,10.9,10.9,29.49,NNE,28,0.0,0.0,100,0.00,,SCT027,0.00,VWS V14.01,2016-02-10 06:52:00,
2016-02-10 01:57:00,11.1,11.1,29.49,NNE,28,0.0,0.0,100,0.00,,SCT027,0.00,VWS V14.01,2016-02-10 06:57:00,
2016-02-10 02:02:00,11.1,11.1,29.49,NNE,28,0.0,0.0,100,0.00,,SCT027,0.00,VWS V14.01,2016-02-10 07:02:00,
2016-02-10 02:07:00,10.7,10.7,29.49,NNE,28,0.0,0.0,100,0.00,,SCT027,0.00,VWS V14.01,2016-02-10 07:07:00,
2016-02-10 02:12:00,10.4,10.4,29.49,NNE,28,0.0,0.0,100,0.00,,SCT027,0.00,VWS V14.01,2016-02-10 07:12:00,
2016-02-10 02:17:00,10.5,10.5,29.49,NNE,28,0.0,0.0,100,0.00,,SCT027,0.00,VWS V14.01,2016-02-10 07:17:00,
2016-02-10 02:22:00,10.7,10.7,29.49,NNE,28,0.0,0.0,100,0.00,,SCT027,0.00,VWS V14.01,2016-02-10 07:22:00,
2016-02-10 02:27:00,11.1,11.1,29.49,NNE,28,0.0,0.0,100,0.00,,SCT027,0.00,VWS V14.01,2016-02-10 07:27:00,
2016-02-10 02:37:00,11.6,11.6,29.50,NNE,28,0.0,0.0,100,0.00,,SCT027,0.00,VWS V14.01,2016-02-10 07:37:00,
2016-02-10 02:42:00,11.6,11.6,29.50,NNE,28,0.0,0.0,100,0.00,,CLR,0.00,VWS V14.01,2016-02-10 07:42:00,
2016-02-10 02:47:00,11.7,11.7,29.49,NNE,28,0.0,0.0,100,0.00,,CLR,0.00,VWS V14.01,2016-02-10 07:47:00,
2016-02-10 02:52:00,11.7,11.7,29.49,NNE,28,0.0,0.0,100,0.00,,CLR,0.00,VWS V14.01,2016-02-10 07:52:00,
2016-02-10 02:57:00,11.7,11.7,29.49,NNE,28,0.0,0.0,100,0.00,,CLR,0.00,VWS V14.01,2016-02-10 07:57:00,
2016-02-10 03:02:00,11.7,11.7,29.48,NNE,28,0.0,0.0,100,0.00,,CLR,0.00,VWS V14.01,2016-02-10 08:02:00,
2016-02-10 03:07:00,11.6,11.6,29.48,NNE,28,0.0,0.0,100,0.00,,CLR,0.00,VWS V14.01,2016-02-10 08:07:00,
2016-02-10 03:12:00,11.4,11.4,29.48,NNE,28,0.0,0.0,100,0.00,,CLR,0.00,VWS V14.01,2016-02-10 08:12:00,
2016-02-10 03:17:00,11.2,11.2,29.48,NNE,28,0.0,0.0,100,0.00,,CLR,0.00,VWS V14.01,2016-02-10 08:17:00,
2016-02-10 03:22:00,11.1,11.1,29.48,NNE,28,0.0,0.0,100,0.00,,CLR,0.00,VWS V14.01,2016-02-10 08:22:00,
2016-02-10 03:27:00,11.2,11.2,29.48,NNE,28,0.0,0.0,100,0.00,,CLR,0.00,VWS V14.01,2016-02-10 08:27:00,
2016-02-10 03:32:00,11.2,11.2,29.48,NNE,28,0.0,0.0,100,0.00,,CLR,0.00,VWS V14.01,2016-02-10 08:32:00,
2016-02-10 03:42:00,11.2,11.2,29.48,NNE,28,0.0,0.0,100,0.00,,BKN038,0.00,VWS V14.01,2016-02-10 08:42:00,
2016-02-10 03:47:00,11.1,11.1,29.48,NNE,28,0.0,0.0,100,0.00,,BKN038,0.00,VWS V14.01,2016-02-10 08:47:00,
2016-02-10 03:53:00,11.1,11.1,29.48,NNE,28,0.0,0.0,100,0.00,,BKN038,0.00,VWS V14.01,2016-02-10 08:53:00,
2016-02-10 03:58:00,10.9,10.9,29.48,NNE,28,0.0,0.0,100,0.00,,BKN038,0.00,VWS V14.01,2016-02-10 08:58:00,
2016-02-10 04:08:00,10.9,10.9,29.48,NNE,28,0.0,0.0,100,0.00,,BKN038,0.00,VWS V14.01,2016-02-10 09:08:00,